Time;durP1;ratioP1;P1;durP2;ratioP2;P2;SDS_P1;SDS_P2;PMS_P1;PMS_P2;Temp;Humidity;BMP_temperature;BMP_pressure;BME280_temperature;BME280_humidity;BME280_pressure;Samples;Min_cycle;Max_cycle;Signal;HPM_P1;HPM_P2
2021/10/05 00:01:45;;;;;;;3.58;1.60;;;;;;;;;;5013450;28;20222;-74
2021/10/05 00:04:14;;;;;;;1.58;1.48;;;;;;;;;;5014323;28;20201;-74
2021/10/05 00:06:41;;;;;;;1.45;1.35;;;;;;;;;;5013835;28;20209;-73
2021/10/05 00:09:08;;;;;;;2.10;1.50;;;;;;;;;;5014468;28;20197;-74
2021/10/05 00:11:35;;;;;;;2.40;1.40;;;;;;;;;;5015023;28;20807;-74
2021/10/05 00:14:02;;;;;;;2.00;1.80;;;;;;;;;;5019383;28;20332;-73
2021/10/05 00:16:29;;;;;;;1.50;1.30;;;;;;;;;;5014232;28;20679;-74
2021/10/05 00:18:56;;;;;;;1.60;1.35;;;;;;;;;;5017393;28;20220;-74
2021/10/05 00:21:24;;;;;;;1.67;1.45;;;;;;;;;;5010558;28;20206;-74
2021/10/05 00:23:52;;;;;;;1.75;1.52;;;;;;;;;;5011716;28;20250;-74
2021/10/05 00:26:19;;;;;;;2.22;1.83;;;;;;;;;;5022810;28;20204;-74
2021/10/05 00:28:46;;;;;;;1.77;1.67;;;;;;;;;;5011593;28;20193;-74
2021/10/05 00:31:13;;;;;;;1.67;1.48;;;;;;;;;;5013969;28;20290;-75
2021/10/05 00:33:40;;;;;;;2.33;1.90;;;;;;;;;;5013485;28;20201;-74
2021/10/05 00:36:08;;;;;;;2.22;1.50;;;;;;;;;;5012283;28;20204;-74
2021/10/05 00:38:36;;;;;;;1.50;1.40;;;;;;;;;;5018399;28;20303;-75
2021/10/05 00:41:03;;;;;;;2.45;1.77;;;;;;;;;;5015807;28;20201;-74
2021/10/05 00:43:30;;;;;;;2.17;1.55;;;;;;;;;;5013808;28;20255;-76
2021/10/05 00:45:57;;;;;;;1.63;1.40;;;;;;;;;;5020908;28;20235;-76
2021/10/05 00:48:24;;;;;;;1.70;1.48;;;;;;;;;;5012969;28;20203;-76
2021/10/05 00:50:51;;;;;;;2.00;1.70;;;;;;;;;;5012567;28;20639;-76
2021/10/05 00:53:19;;;;;;;2.22;1.83;;;;;;;;;;5013298;28;20271;-76
2021/10/05 00:55:48;;;;;;;1.70;1.50;;;;;;;;;;5011473;28;20205;-75
2021/10/05 00:58:15;;;;;;;2.38;1.80;;;;;;;;;;5007981;28;20270;-75
2021/10/05 01:00:42;;;;;;;1.70;1.45;;;;;;;;;;5013895;28;20197;-75
2021/10/05 01:03:09;;;;;;;1.52;1.30;;;;;;;;;;5013201;28;20204;-75
2021/10/05 01:05:36;;;;;;;1.90;1.80;;;;;;;;;;5008511;28;20240;-74
2021/10/05 01:08:03;;;;;;;1.70;1.60;;;;;;;;;;5013109;28;20189;-74
2021/10/05 01:10:30;;;;;;;1.77;1.40;;;;;;;;;;5013401;28;20667;-74
2021/10/05 01:12:58;;;;;;;1.30;1.20;;;;;;;;;;5012732;28;20196;-73
2021/10/05 01:15:26;;;;;;;1.60;1.30;;;;;;;;;;5008117;28;20784;-74
2021/10/05 01:17:53;;;;;;;1.60;1.50;;;;;;;;;;5011071;28;20271;-74
2021/10/05 01:20:21;;;;;;;2.80;1.40;;;;;;;;;;5011917;28;20201;-74
2021/10/05 01:22:50;;;;;;;1.60;1.30;;;;;;;;;;5012248;28;20279;-75
2021/10/05 01:25:17;;;;;;;1.40;1.30;;;;;;;;;;5011950;28;20203;-74
2021/10/05 01:27:45;;;;;;;2.13;1.40;;;;;;;;;;5010640;28;20243;-75
2021/10/05 01:30:12;;;;;;;1.77;1.67;;;;;;;;;;5012376;28;20295;-75
2021/10/05 01:32:39;;;;;;;2.08;1.33;;;;;;;;;;5012401;28;20728;-75
2021/10/05 01:35:07;;;;;;;2.42;1.33;;;;;;;;;;5012114;28;20204;-74
2021/10/05 01:37:34;;;;;;;8.55;1.90;;;;;;;;;;5012199;28;20227;-74
2021/10/05 01:40:02;;;;;;;1.73;1.30;;;;;;;;;;5014940;28;20205;-73
2021/10/05 01:42:29;;;;;;;2.63;1.92;;;;;;;;;;5006036;28;20197;-74
2021/10/05 01:44:56;;;;;;;2.13;1.40;;;;;;;;;;5010418;28;20257;-75
2021/10/05 01:47:23;;;;;;;2.65;1.83;;;;;;;;;;5012045;28;20647;-74
2021/10/05 01:49:51;;;;;;;2.45;1.75;;;;;;;;;;5012511;28;20251;-74
2021/10/05 01:52:18;;;;;;;2.85;1.42;;;;;;;;;;5007754;28;20243;-73
2021/10/05 01:54:45;;;;;;;1.83;1.50;;;;;;;;;;5012376;28;20251;-73
2021/10/05 01:57:13;;;;;;;1.55;1.42;;;;;;;;;;5011626;28;20683;-74
2021/10/05 01:59:40;;;;;;;1.60;1.50;;;;;;;;;;5010458;28;20263;-73
2021/10/05 02:02:10;;;;;;;1.80;1.38;;;;;;;;;;5011707;28;20204;-74
2021/10/05 02:04:38;;;;;;;2.30;1.60;;;;;;;;;;5011526;28;20267;-74
2021/10/05 02:07:05;;;;;;;2.42;1.77;;;;;;;;;;5014204;28;20675;-74
2021/10/05 02:09:32;;;;;;;2.10;1.30;;;;;;;;;;5011158;28;20192;-74
2021/10/05 02:11:59;;;;;;;2.45;2.25;;;;;;;;;;5006014;28;20750;-74
2021/10/05 02:14:27;;;;;;;2.38;1.52;;;;;;;;;;5027723;28;20199;-75
2021/10/05 02:16:57;;;;;;;1.90;1.52;;;;;;;;;;5013819;28;20255;-74
2021/10/05 02:19:24;;;;;;;2.00;1.75;;;;;;;;;;5010808;28;20642;-75
2021/10/05 02:21:51;;;;;;;1.60;1.40;;;;;;;;;;5014596;28;20204;-75
2021/10/05 02:27:05;;;;;;;1.70;1.55;;;;;;;;;;5015918;28;20634;-74
2021/10/05 02:29:36;;;;;;;1.60;1.33;;;;;;;;;;5012060;28;20201;-75
2021/10/05 02:32:03;;;;;;;2.22;1.50;;;;;;;;;;5016853;28;20227;-75
2021/10/05 02:34:30;;;;;;;1.50;1.40;;;;;;;;;;5013080;28;20231;-75
2021/10/05 02:36:57;;;;;;;1.63;1.40;;;;;;;;;;5012143;28;20204;-73
2021/10/05 02:39:24;;;;;;;1.58;1.17;;;;;;;;;;5011896;28;20295;-74
2021/10/05 02:41:51;;;;;;;1.30;1.20;;;;;;;;;;5008564;28;20619;-74
2021/10/05 02:44:18;;;;;;;2.50;1.85;;;;;;;;;;5011778;28;20659;-74
2021/10/05 02:46:47;;;;;;;1.60;1.42;;;;;;;;;;5011886;28;20205;-74
2021/10/05 02:49:14;;;;;;;2.30;1.80;;;;;;;;;;5011419;28;20288;-74
2021/10/05 02:51:42;;;;;;;1.88;1.52;;;;;;;;;;5010219;28;20207;-74
2021/10/05 02:54:09;;;;;;;1.60;1.50;;;;;;;;;;5014101;28;20659;-74
2021/10/05 02:56:36;;;;;;;1.90;1.55;;;;;;;;;;5011228;28;20209;-74
2021/10/05 02:59:03;;;;;;;1.65;1.50;;;;;;;;;;5011335;28;20275;-74
2021/10/05 03:01:30;;;;;;;2.10;1.75;;;;;;;;;;5011291;28;20594;-74
2021/10/05 03:03:58;;;;;;;1.75;1.65;;;;;;;;;;5009687;28;20262;-74
2021/10/05 03:06:25;;;;;;;2.70;1.50;;;;;;;;;;5009194;28;20247;-75
2021/10/05 03:08:54;;;;;;;2.30;2.03;;;;;;;;;;5011476;28;20201;-75
2021/10/05 03:11:21;;;;;;;2.00;1.80;;;;;;;;;;5014762;28;20204;-75
2021/10/05 03:13:49;;;;;;;1.40;1.30;;;;;;;;;;5026709;28;20215;-74
2021/10/05 03:16:16;;;;;;;1.88;1.67;;;;;;;;;;5017308;28;20201;-75
2021/10/05 03:18:45;;;;;;;2.75;1.38;;;;;;;;;;5011733;28;20275;-75
2021/10/05 03:21:13;;;;;;;1.73;1.55;;;;;;;;;;5010284;28;20201;-73
2021/10/05 03:23:40;;;;;;;1.88;1.70;;;;;;;;;;5016909;28;20208;-73
2021/10/05 03:26:07;;;;;;;1.67;1.58;;;;;;;;;;5015348;28;20247;-74
2021/10/05 03:28:34;;;;;;;1.92;1.50;;;;;;;;;;5014507;28;20663;-74
2021/10/05 03:31:01;;;;;;;2.60;1.40;;;;;;;;;;5013864;28;20496;-74
2021/10/05 03:33:28;;;;;;;1.58;1.48;;;;;;;;;;5015441;28;20209;-74
2021/10/05 03:35:55;;;;;;;2.10;1.60;;;;;;;;;;5030127;28;20260;-73
2021/10/05 03:38:24;;;;;;;1.60;1.50;;;;;;;;;;5012952;28;20216;-74
2021/10/05 03:40:51;;;;;;;2.30;1.65;;;;;;;;;;5014921;28;20243;-74
2021/10/05 03:43:18;;;;;;;2.40;1.48;;;;;;;;;;5014225;28;20204;-74
2021/10/05 03:45:45;;;;;;;3.58;1.65;;;;;;;;;;5013582;28;20209;-74
2021/10/05 03:48:12;;;;;;;2.05;1.85;;;;;;;;;;5018600;28;20201;-74
2021/10/05 03:50:40;;;;;;;2.05;1.70;;;;;;;;;;5013929;28;20243;-74
2021/10/05 03:53:07;;;;;;;1.60;1.50;;;;;;;;;;5013428;28;20678;-75
2021/10/05 03:55:35;;;;;;;2.00;1.80;;;;;;;;;;5014865;28;20255;-76
2021/10/05 03:58:02;;;;;;;1.38;1.20;;;;;;;;;;5025265;28;20208;-74
2021/10/05 04:00:29;;;;;;;2.35;2.13;;;;;;;;;;5024361;28;20243;-74
2021/10/05 04:02:56;;;;;;;2.10;1.95;;;;;;;;;;5032719;28;20245;-75
2021/10/05 04:05:24;;;;;;;2.05;1.60;;;;;;;;;;5013518;28;20236;-75
2021/10/05 04:07:51;;;;;;;2.42;2.22;;;;;;;;;;5013282;28;20287;-75
2021/10/05 04:10:18;;;;;;;1.85;1.45;;;;;;;;;;5014089;28;20284;-75
2021/10/05 04:12:46;;;;;;;2.03;1.75;;;;;;;;;;5008498;28;20659;-75
2021/10/05 04:15:13;;;;;;;1.85;1.75;;;;;;;;;;5014429;28;20197;-75
2021/10/05 04:17:40;;;;;;;4.20;1.85;;;;;;;;;;5014325;28;20193;-75
2021/10/05 04:20:08;;;;;;;3.25;1.80;;;;;;;;;;5013471;28;20737;-75
2021/10/05 04:22:35;;;;;;;1.55;1.40;;;;;;;;;;5015475;28;20201;-75
2021/10/05 04:25:05;;;;;;;2.30;1.50;;;;;;;;;;5017103;28;20680;-75
2021/10/05 04:27:32;;;;;;;2.67;1.30;;;;;;;;;;5013593;28;20200;-75
2021/10/05 04:30:01;;;;;;;1.52;1.20;;;;;;;;;;5012829;28;20217;-75
2021/10/05 04:32:28;;;;;;;1.83;1.73;;;;;;;;;;5022996;28;20204;-75
2021/10/05 04:34:56;;;;;;;1.70;1.60;;;;;;;;;;5025676;28;20232;-75
2021/10/05 04:37:23;;;;;;;1.70;1.48;;;;;;;;;;5014035;28;20259;-75
2021/10/05 04:39:50;;;;;;;1.83;1.55;;;;;;;;;;5017546;28;20761;-75
2021/10/05 04:42:17;;;;;;;2.17;1.42;;;;;;;;;;5006052;28;20205;-75
2021/10/05 04:44:44;;;;;;;2.45;1.67;;;;;;;;;;5005491;28;20614;-75
2021/10/05 04:47:12;;;;;;;5.32;2.10;;;;;;;;;;5015166;28;20540;-76
2021/10/05 04:49:41;;;;;;;1.98;1.65;;;;;;;;;;5011814;28;20545;-75
2021/10/05 04:52:08;;;;;;;2.10;1.77;;;;;;;;;;5012796;28;20201;-75
2021/10/05 04:54:35;;;;;;;1.83;1.63;;;;;;;;;;5019031;28;20199;-75
2021/10/05 04:57:02;;;;;;;2.85;2.08;;;;;;;;;;5012781;28;20207;-75
2021/10/05 04:59:31;;;;;;;2.95;2.08;;;;;;;;;;5016111;28;20217;-75
2021/10/05 05:01:58;;;;;;;1.45;1.35;;;;;;;;;;5012281;28;20203;-75
2021/10/05 05:04:26;;;;;;;1.45;1.35;;;;;;;;;;5012742;28;20201;-75
2021/10/05 05:06:53;;;;;;;3.20;1.92;;;;;;;;;;5011982;28;20675;-75
2021/10/05 05:09:20;;;;;;;2.53;1.85;;;;;;;;;;5022021;28;20215;-75
2021/10/05 05:11:47;;;;;;;3.75;2.28;;;;;;;;;;5019097;28;20741;-75
2021/10/05 05:14:17;;;;;;;1.65;1.55;;;;;;;;;;5013132;28;20197;-75
2021/10/05 05:16:44;;;;;;;2.85;1.83;;;;;;;;;;5012230;28;20247;-75
2021/10/05 05:19:11;;;;;;;1.85;1.70;;;;;;;;;;5013891;28;20212;-75
2021/10/05 05:21:39;;;;;;;3.67;1.73;;;;;;;;;;5013489;28;20267;-75
2021/10/05 05:24:07;;;;;;;1.88;1.75;;;;;;;;;;5013523;28;20208;-76
2021/10/05 05:26:34;;;;;;;2.38;1.90;;;;;;;;;;5012700;28;20618;-75
2021/10/05 05:29:01;;;;;;;2.10;1.90;;;;;;;;;;5024598;28;20659;-76
2021/10/05 05:31:28;;;;;;;1.60;1.50;;;;;;;;;;5018268;28;20263;-74
2021/10/05 05:33:55;;;;;;;2.83;2.35;;;;;;;;;;5011647;28;20205;-76
2021/10/05 05:36:22;;;;;;;2.08;1.80;;;;;;;;;;5012966;28;20617;-75
2021/10/05 05:38:50;;;;;;;5.68;2.22;;;;;;;;;;5028689;28;20429;-75
2021/10/05 05:41:17;;;;;;;1.98;1.77;;;;;;;;;;5012625;28;20204;-78
2021/10/05 05:43:45;;;;;;;1.92;1.70;;;;;;;;;;5021888;28;20196;-77
2021/10/05 05:46:12;;;;;;;1.60;1.42;;;;;;;;;;5014857;28;20201;-77
2021/10/05 05:48:39;;;;;;;1.80;1.70;;;;;;;;;;5011352;28;20207;-76
2021/10/05 05:51:06;;;;;;;2.80;2.25;;;;;;;;;;5019948;28;20602;-76
2021/10/05 05:53:33;;;;;;;3.53;2.35;;;;;;;;;;5012512;28;20204;-77
2021/10/05 05:56:02;;;;;;;2.97;1.80;;;;;;;;;;5013176;28;20205;-78
2021/10/05 05:58:29;;;;;;;3.72;1.90;;;;;;;;;;5012248;28;20204;-78
2021/10/05 06:00:56;;;;;;;1.95;1.85;;;;;;;;;;5017399;28;20227;-77
2021/10/05 06:03:23;;;;;;;2.40;2.20;;;;;;;;;;5032295;28;20242;-76
2021/10/05 06:05:50;;;;;;;2.80;2.60;;;;;;;;;;5014810;28;20205;-77
2021/10/05 06:08:17;;;;;;;1.90;1.80;;;;;;;;;;5005533;28;20252;-77
2021/10/05 06:10:44;;;;;;;2.70;2.20;;;;;;;;;;5011489;28;20200;-76
2021/10/05 06:13:13;;;;;;;2.35;2.15;;;;;;;;;;5012324;28;20212;-77
2021/10/05 06:15:40;;;;;;;2.65;2.45;;;;;;;;;;5012258;28;20251;-76
2021/10/05 06:18:07;;;;;;;5.15;3.05;;;;;;;;;;5012006;28;20603;-76
2021/10/05 06:20:34;;;;;;;5.03;2.97;;;;;;;;;;5010603;28;20224;-75
2021/10/05 06:23:02;;;;;;;3.00;2.15;;;;;;;;;;5011305;28;20205;-76
2021/10/05 06:25:30;;;;;;;2.80;2.60;;;;;;;;;;5012184;28;20201;-76
2021/10/05 06:27:58;;;;;;;5.38;2.53;;;;;;;;;;5010648;28;20604;-76
2021/10/05 06:30:27;;;;;;;2.85;2.63;;;;;;;;;;5007036;28;20220;-76
2021/10/05 06:32:54;;;;;;;4.35;2.67;;;;;;;;;;5010933;28;20284;-75
2021/10/05 06:35:23;;;;;;;4.82;2.78;;;;;;;;;;5001739;28;20284;-75
2021/10/05 06:37:53;;;;;;;4.18;2.40;;;;;;;;;;5009945;28;20254;-75
2021/10/05 06:40:20;;;;;;;3.15;2.35;;;;;;;;;;5002843;28;20216;-75
2021/10/05 06:42:47;;;;;;;2.63;2.42;;;;;;;;;;5011345;28;20275;-76
2021/10/05 06:45:14;;;;;;;4.45;3.58;;;;;;;;;;5011080;28;20200;-75
2021/10/05 06:47:43;;;;;;;2.50;2.30;;;;;;;;;;5010922;28;20563;-75
2021/10/05 06:50:10;;;;;;;3.88;2.63;;;;;;;;;;5010342;28;20196;-75
2021/10/05 06:52:37;;;;;;;2.58;2.38;;;;;;;;;;5009775;28;20666;-75
2021/10/05 06:55:04;;;;;;;3.95;3.28;;;;;;;;;;5011481;28;20251;-75
2021/10/05 06:57:31;;;;;;;2.72;2.53;;;;;;;;;;5012485;28;20635;-75
2021/10/05 06:59:58;;;;;;;6.30;3.50;;;;;;;;;;5015133;28;20745;-78
2021/10/05 07:02:25;;;;;;;4.75;3.85;;;;;;;;;;5022584;28;20196;-78
2021/10/05 07:04:54;;;;;;;2.90;2.63;;;;;;;;;;5020885;28;20625;-77
2021/10/05 07:07:21;;;;;;;2.47;2.28;;;;;;;;;;5019927;28;20203;-78
2021/10/05 07:09:48;;;;;;;3.10;2.80;;;;;;;;;;5019569;28;20655;-77
2021/10/05 07:12:15;;;;;;;3.30;2.50;;;;;;;;;;5010792;28;20273;-77
2021/10/05 07:14:42;;;;;;;3.47;3.17;;;;;;;;;;5019828;28;20611;-78
2021/10/05 07:17:09;;;;;;;3.20;2.35;;;;;;;;;;5014865;28;20197;-78
2021/10/05 07:19:36;;;;;;;3.55;2.78;;;;;;;;;;5017138;28;20306;-78
2021/10/05 07:22:05;;;;;;;4.43;3.00;;;;;;;;;;5014265;28;20200;-78
2021/10/05 07:24:32;;;;;;;4.55;2.95;;;;;;;;;;5019706;28;20204;-77
2021/10/05 07:26:59;;;;;;;3.53;2.90;;;;;;;;;;5018088;28;20197;-77
2021/10/05 07:29:26;;;;;;;2.60;2.40;;;;;;;;;;5019047;28;20216;-77
2021/10/05 07:31:53;;;;;;;2.97;2.70;;;;;;;;;;5019609;28;20196;-76
2021/10/05 07:34:20;;;;;;;2.53;2.33;;;;;;;;;;5028467;28;20196;-76
2021/10/05 07:36:47;;;;;;;2.88;2.38;;;;;;;;;;5014317;28;20653;-75
2021/10/05 07:39:16;;;;;;;3.42;2.60;;;;;;;;;;5014639;28;20247;-75
2021/10/05 07:41:43;;;;;;;2.97;2.78;;;;;;;;;;5011555;28;20257;-76
2021/10/05 07:44:10;;;;;;;5.50;2.25;;;;;;;;;;5024705;28;20197;-75
2021/10/05 07:46:38;;;;;;;2.75;2.20;;;;;;;;;;5014243;28;20201;-76
2021/10/05 07:49:05;;;;;;;2.50;2.30;;;;;;;;;;5011725;28;20212;-75
2021/10/05 07:51:32;;;;;;;3.65;3.35;;;;;;;;;;5022505;28;20287;-75
2021/10/05 07:53:59;;;;;;;2.30;2.10;;;;;;;;;;5016085;28;20208;-75
2021/10/05 07:56:28;;;;;;;2.17;2.03;;;;;;;;;;5013697;28;20258;-76
2021/10/05 07:58:55;;;;;;;4.72;2.10;;;;;;;;;;5011829;28;20619;-76
2021/10/05 08:01:22;;;;;;;3.75;2.00;;;;;;;;;;5026138;28;20219;-76
2021/10/05 08:03:49;;;;;;;1.90;1.80;;;;;;;;;;5033277;28;20200;-76
2021/10/05 08:06:16;;;;;;;2.38;2.17;;;;;;;;;;5014366;28;20205;-77
2021/10/05 08:08:43;;;;;;;4.15;2.55;;;;;;;;;;5014427;28;20197;-76
2021/10/05 08:11:11;;;;;;;2.40;2.20;;;;;;;;;;5015554;28;20213;-76
2021/10/05 08:13:39;;;;;;;2.70;2.50;;;;;;;;;;5013965;28;20235;-76
2021/10/05 08:16:06;;;;;;;2.55;1.85;;;;;;;;;;5013210;28;20624;-76
2021/10/05 08:18:33;;;;;;;2.40;2.20;;;;;;;;;;5013219;28;20196;-76
2021/10/05 08:21:00;;;;;;;3.38;3.00;;;;;;;;;;5009464;28;20229;-77
2021/10/05 08:23:27;;;;;;;4.75;1.88;;;;;;;;;;5013869;28;20209;-76
2021/10/05 08:25:54;;;;;;;2.25;2.05;;;;;;;;;;5013969;28;20220;-75
2021/10/05 08:28:21;;;;;;;2.10;1.95;;;;;;;;;;5009545;28;20262;-77
2021/10/05 08:30:49;;;;;;;1.40;1.27;;;;;;;;;;5012865;28;20224;-76
2021/10/05 08:33:18;;;;;;;1.65;1.50;;;;;;;;;;5014377;28;20208;-76
2021/10/05 08:35:45;;;;;;;2.42;1.67;;;;;;;;;;5009913;28;20251;-75
2021/10/05 08:38:12;;;;;;;1.90;1.60;;;;;;;;;;5013178;28;20556;-76
2021/10/05 08:40:39;;;;;;;1.73;1.63;;;;;;;;;;5009476;28;20221;-76
2021/10/05 08:43:06;;;;;;;2.53;2.10;;;;;;;;;;5001395;28;20682;-76
2021/10/05 08:45:33;;;;;;;1.88;1.77;;;;;;;;;;5013015;28;20205;-77
2021/10/05 08:48:02;;;;;;;2.38;2.00;;;;;;;;;;5013753;28;20209;-76
2021/10/05 08:50:29;;;;;;;1.80;1.60;;;;;;;;;;5013407;28;20196;-76
2021/10/05 08:52:56;;;;;;;2.00;1.80;;;;;;;;;;5011812;28;20670;-76
2021/10/05 08:55:23;;;;;;;2.20;1.88;;;;;;;;;;5004660;28;20206;-76
2021/10/05 08:57:50;;;;;;;1.70;1.60;;;;;;;;;;5010125;28;20211;-78
2021/10/05 09:00:18;;;;;;;2.13;1.92;;;;;;;;;;5009345;28;20220;-76
2021/10/05 09:02:48;;;;;;;2.10;1.80;;;;;;;;;;5013202;28;20204;-76
2021/10/05 09:05:17;;;;;;;2.55;1.58;;;;;;;;;;5015068;28;20193;-76
2021/10/05 09:07:45;;;;;;;1.58;1.42;;;;;;;;;;5014431;28;20243;-76
2021/10/05 09:10:13;;;;;;;2.13;1.65;;;;;;;;;;5013236;28;20197;-76
2021/10/05 09:12:40;;;;;;;2.40;1.45;;;;;;;;;;5013107;28;20205;-76
2021/10/05 09:15:08;;;;;;;2.17;1.20;;;;;;;;;;5017079;28;20197;-77
2021/10/05 09:17:35;;;;;;;1.45;1.35;;;;;;;;;;5014109;28;20189;-75
2021/10/05 09:20:02;;;;;;;1.42;1.27;;;;;;;;;;5014964;28;20212;-76
2021/10/05 09:22:31;;;;;;;1.40;1.20;;;;;;;;;;5021366;28;20254;-75
2021/10/05 09:24:59;;;;;;;1.42;1.13;;;;;;;;;;5020509;28;20734;-77
2021/10/05 09:27:27;;;;;;;1.30;1.10;;;;;;;;;;5012591;28;20270;-76
2021/10/05 09:29:54;;;;;;;1.98;1.25;;;;;;;;;;5017892;28;20258;-76
2021/10/05 09:32:22;;;;;;;1.20;1.10;;;;;;;;;;5012994;28;20227;-76
2021/10/05 09:34:51;;;;;;;1.33;1.23;;;;;;;;;;5007852;28;20275;-76
2021/10/05 09:37:18;;;;;;;1.10;1.00;;;;;;;;;;5000317;28;20714;-76
2021/10/05 09:39:48;;;;;;;1.35;1.05;;;;;;;;;;5007229;28;20196;-76
2021/10/05 09:42:22;;;;;;;1.80;1.40;;;;;;;;;;5012093;28;20964;-77
2021/10/05 09:44:53;;;;;;;1.30;1.17;;;;;;;;;;5012933;28;20199;-76
2021/10/05 09:47:31;;;;;;;1.80;1.25;;;;;;;;;;5010936;28;20212;-74
2021/10/05 09:49:58;;;;;;;1.55;1.20;;;;;;;;;;5013518;28;20660;-73
2021/10/05 09:52:25;;;;;;;3.65;1.38;;;;;;;;;;4993291;28;20730;-75
2021/10/05 09:54:53;;;;;;;7.97;1.35;;;;;;;;;;4994216;28;20205;-74
2021/10/05 09:57:20;;;;;;;1.20;1.00;;;;;;;;;;5020359;28;20670;-74
2021/10/05 09:59:48;;;;;;;3.90;1.10;;;;;;;;;;5012851;28;20872;-76
2021/10/05 10:02:17;;;;;;;1.80;1.25;;;;;;;;;;5014107;28;20185;-76
2021/10/05 10:04:44;;;;;;;1.92;1.27;;;;;;;;;;5009390;28;20255;-77
2021/10/05 10:07:11;;;;;;;1.30;1.20;;;;;;;;;;5012718;28;20204;-76
2021/10/05 10:09:39;;;;;;;1.48;1.13;;;;;;;;;;5012341;28;20200;-75
2021/10/05 10:12:08;;;;;;;2.42;1.48;;;;;;;;;;5013811;28;20243;-76
2021/10/05 10:14:35;;;;;;;1.20;1.00;;;;;;;;;;5027781;28;20677;-77
2021/10/05 10:17:02;;;;;;;1.17;0.90;;;;;;;;;;5013741;28;20224;-77
2021/10/05 10:19:36;;;;;;;1.40;1.20;;;;;;;;;;5011376;28;20204;-78
2021/10/05 10:22:07;;;;;;;1.63;1.20;;;;;;;;;;5014897;28;20568;-77
2021/10/05 10:24:44;;;;;;;3.30;1.30;;;;;;;;;;5008081;28;20664;-75
2021/10/05 10:27:13;;;;;;;2.20;0.98;;;;;;;;;;5005187;28;20275;-76
2021/10/05 10:29:40;;;;;;;1.20;1.10;;;;;;;;;;5009640;28;20224;-76
2021/10/05 10:32:15;;;;;;;1.38;1.15;;;;;;;;;;5004868;28;20197;-76
2021/10/05 10:34:44;;;;;;;2.08;0.90;;;;;;;;;;5007684;28;20220;-77
2021/10/05 10:37:15;;;;;;;1.40;1.20;;;;;;;;;;5006641;28;20714;-76
2021/10/05 10:39:43;;;;;;;1.45;0.90;;;;;;;;;;5008167;28;20716;-77
2021/10/05 10:42:10;;;;;;;1.10;0.90;;;;;;;;;;5004034;28;20256;-77
2021/10/05 10:44:40;;;;;;;1.60;1.30;;;;;;;;;;5006473;28;20205;-76
2021/10/05 10:47:09;;;;;;;1.50;1.10;;;;;;;;;;5008540;28;20638;-78
2021/10/05 10:49:36;;;;;;;1.33;0.90;;;;;;;;;;5005408;28;20369;-77
2021/10/05 10:52:04;;;;;;;1.85;1.00;;;;;;;;;;5008581;28;20256;-76
2021/10/05 10:54:31;;;;;;;1.20;0.80;;;;;;;;;;5007936;28;20208;-76
2021/10/05 10:57:00;;;;;;;0.90;0.80;;;;;;;;;;5004838;28;20203;-77
2021/10/05 10:59:27;;;;;;;1.20;1.10;;;;;;;;;;5012206;28;20223;-77
2021/10/05 11:02:00;;;;;;;0.90;0.80;;;;;;;;;;5023924;28;20760;-76
2021/10/05 11:04:27;;;;;;;1.50;1.20;;;;;;;;;;5006339;28;20204;-77
2021/10/05 11:06:57;;;;;;;1.13;0.80;;;;;;;;;;5010547;28;20678;-76
2021/10/05 11:09:28;;;;;;;1.20;0.80;;;;;;;;;;5004514;28;20556;-77
2021/10/05 11:11:58;;;;;;;1.42;0.85;;;;;;;;;;5007919;28;20213;-77
2021/10/05 11:14:27;;;;;;;3.58;0.90;;;;;;;;;;5011804;28;20571;-76
2021/10/05 11:16:55;;;;;;;1.10;1.00;;;;;;;;;;5012803;28;20208;-76
2021/10/05 11:19:22;;;;;;;1.30;0.90;;;;;;;;;;5011772;28;20683;-76
2021/10/05 11:21:50;;;;;;;3.05;0.80;;;;;;;;;;5007458;28;20220;-78
2021/10/05 11:24:18;;;;;;;1.10;0.93;;;;;;;;;;5003375;28;20660;-77
2021/10/05 11:26:47;;;;;;;1.10;0.90;;;;;;;;;;5011262;28;20193;-76
2021/10/05 11:29:23;;;;;;;1.63;1.30;;;;;;;;;;5012222;28;20659;-76
2021/10/05 11:31:52;;;;;;;1.33;0.90;;;;;;;;;;5010245;28;20201;-77
2021/10/05 11:34:20;;;;;;;2.25;0.85;;;;;;;;;;5010902;28;20205;-76
2021/10/05 11:36:48;;;;;;;1.30;1.20;;;;;;;;;;5017462;28;20205;-76
2021/10/05 11:39:22;;;;;;;1.25;1.00;;;;;;;;;;5011403;28;20200;-76
2021/10/05 11:41:50;;;;;;;2.67;1.10;;;;;;;;;;5009539;28;20225;-76
2021/10/05 11:44:19;;;;;;;1.65;0.95;;;;;;;;;;5016700;28;20225;-76
2021/10/05 11:46:53;;;;;;;1.20;1.05;;;;;;;;;;5011134;28;20204;-76
2021/10/05 11:49:22;;;;;;;1.20;1.10;;;;;;;;;;5007432;28;20716;-79
2021/10/05 11:51:51;;;;;;;0.98;0.88;;;;;;;;;;5010416;28;20193;-76
2021/10/05 11:54:19;;;;;;;4.50;1.10;;;;;;;;;;5016736;28;20434;-76
2021/10/05 11:56:47;;;;;;;1.33;1.10;;;;;;;;;;5013648;28;20722;-76
2021/10/05 11:59:22;;;;;;;1.33;1.23;;;;;;;;;;5014393;28;20197;-73
2021/10/05 12:01:49;;;;;;;1.10;0.98;;;;;;;;;;5014586;28;20307;-76
2021/10/05 12:04:16;;;;;;;2.10;1.10;;;;;;;;;;5014759;28;20193;-76
2021/10/05 12:06:52;;;;;;;1.10;0.80;;;;;;;;;;5010641;28;20202;-76
2021/10/05 12:09:24;;;;;;;2.40;1.02;;;;;;;;;;5013478;28;20196;-76
2021/10/05 12:11:51;;;;;;;2.38;0.90;;;;;;;;;;5013475;28;20738;-76
2021/10/05 12:14:19;;;;;;;1.30;1.20;;;;;;;;;;5014375;28;20624;-77
2021/10/05 12:16:56;;;;;;;1.45;0.95;;;;;;;;;;5013858;28;20197;-75
2021/10/05 12:19:24;;;;;;;1.77;1.00;;;;;;;;;;5023493;28;20554;-76
2021/10/05 12:21:53;;;;;;;1.80;1.10;;;;;;;;;;5023646;28;20216;-76
2021/10/05 12:24:20;;;;;;;1.08;0.85;;;;;;;;;;5015729;28;20915;-76
2021/10/05 12:26:51;;;;;;;1.23;1.00;;;;;;;;;;5009411;28;20201;-77
2021/10/05 12:29:20;;;;;;;1.40;1.20;;;;;;;;;;5012779;28;20204;-76
2021/10/05 12:31:54;;;;;;;1.30;1.00;;;;;;;;;;5011087;28;20197;-77
2021/10/05 12:34:22;;;;;;;3.65;0.90;;;;;;;;;;5013721;28;20192;-77
2021/10/05 12:36:50;;;;;;;1.10;0.85;;;;;;;;;;5014005;28;20201;-77
2021/10/05 12:39:19;;;;;;;1.98;1.17;;;;;;;;;;5008517;28;20283;-75
2021/10/05 12:41:56;;;;;;;1.50;0.90;;;;;;;;;;5009145;28;20225;-75
2021/10/05 12:44:23;;;;;;;1.65;1.02;;;;;;;;;;5006422;28;20315;-77
2021/10/05 12:46:54;;;;;;;1.08;0.90;;;;;;;;;;5013092;28;20200;-78
2021/10/05 12:49:21;;;;;;;1.60;1.10;;;;;;;;;;5012326;28;20204;-76
2021/10/05 12:51:49;;;;;;;1.60;1.10;;;;;;;;;;5010896;28;20247;-78
2021/10/05 12:54:16;;;;;;;1.50;1.25;;;;;;;;;;5010265;28;20243;-76
2021/10/05 12:56:45;;;;;;;1.95;1.10;;;;;;;;;;5015724;28;20201;-74
2021/10/05 12:59:13;;;;;;;1.00;0.70;;;;;;;;;;5015221;28;20205;-77
2021/10/05 13:01:40;;;;;;;1.10;1.00;;;;;;;;;;5012940;28;20215;-73
2021/10/05 13:04:07;;;;;;;1.38;1.10;;;;;;;;;;5007275;28;20200;-75
2021/10/05 13:06:35;;;;;;;2.90;1.50;;;;;;;;;;5016936;28;20201;-74
2021/10/05 13:09:05;;;;;;;1.60;0.80;;;;;;;;;;5012617;28;20247;-75
2021/10/05 13:11:32;;;;;;;1.60;1.30;;;;;;;;;;5011985;28;20231;-75
2021/10/05 13:14:01;;;;;;;2.05;1.20;;;;;;;;;;5010421;28;20196;-75
2021/10/05 13:16:28;;;;;;;1.70;0.98;;;;;;;;;;5011904;28;20204;-75
2021/10/05 13:18:55;;;;;;;1.13;1.00;;;;;;;;;;5011783;28;20200;-75
2021/10/05 13:21:22;;;;;;;3.35;1.33;;;;;;;;;;5014259;28;20227;-75
2021/10/05 13:23:49;;;;;;;1.02;0.90;;;;;;;;;;5013215;28;20216;-75
2021/10/05 13:26:16;;;;;;;1.20;0.88;;;;;;;;;;5012143;28;20193;-77
2021/10/05 13:28:43;;;;;;;1.20;1.00;;;;;;;;;;5004150;28;20204;-75
2021/10/05 13:31:12;;;;;;;1.38;1.13;;;;;;;;;;5011328;28;20626;-76
2021/10/05 13:33:40;;;;;;;1.30;1.10;;;;;;;;;;5014252;28;20667;-75
2021/10/05 13:36:07;;;;;;;1.83;1.20;;;;;;;;;;5007427;28;20208;-76
2021/10/05 13:38:34;;;;;;;1.30;1.02;;;;;;;;;;5012791;28;20263;-76
2021/10/05 13:41:01;;;;;;;3.03;1.10;;;;;;;;;;5011575;28;20647;-74
2021/10/05 13:43:28;;;;;;;1.10;0.88;;;;;;;;;;5010777;28;20200;-75
2021/10/05 13:45:55;;;;;;;1.23;1.05;;;;;;;;;;5016603;28;20200;-74
2021/10/05 13:48:24;;;;;;;2.00;0.85;;;;;;;;;;5011164;28;20259;-75
2021/10/05 13:50:53;;;;;;;2.78;1.40;;;;;;;;;;5009984;28;20679;-73
2021/10/05 13:53:20;;;;;;;1.50;1.25;;;;;;;;;;5010767;28;20627;-75
2021/10/05 13:55:47;;;;;;;1.40;0.90;;;;;;;;;;5011740;28;20263;-72
2021/10/05 13:58:14;;;;;;;1.65;1.23;;;;;;;;;;5007836;28;20205;-73
2021/10/05 14:00:42;;;;;;;1.58;1.10;;;;;;;;;;5026507;28;20224;-75
2021/10/05 14:03:11;;;;;;;1.00;0.90;;;;;;;;;;5023443;28;20221;-75
2021/10/05 14:05:39;;;;;;;1.30;1.20;;;;;;;;;;5009183;28;20644;-74
2021/10/05 14:08:06;;;;;;;1.35;1.00;;;;;;;;;;5014479;28;20486;-75
2021/10/05 14:10:33;;;;;;;1.52;1.33;;;;;;;;;;5012350;28;20655;-76
2021/10/05 14:13:00;;;;;;;1.90;1.00;;;;;;;;;;5012722;28;20726;-75
2021/10/05 14:15:27;;;;;;;1.33;1.23;;;;;;;;;;5012184;28;20251;-75
2021/10/05 14:17:54;;;;;;;1.65;1.02;;;;;;;;;;5011628;28;20255;-74
2021/10/05 14:20:21;;;;;;;1.17;1.00;;;;;;;;;;5015283;28;20251;-75
2021/10/05 14:22:50;;;;;;;1.30;1.10;;;;;;;;;;5011850;28;20216;-75
2021/10/05 14:25:19;;;;;;;1.75;1.27;;;;;;;;;;5012291;28;20721;-78
2021/10/05 14:27:47;;;;;;;2.22;0.90;;;;;;;;;;5011314;28;20639;-76
2021/10/05 14:30:14;;;;;;;1.30;1.00;;;;;;;;;;5015992;28;20830;-74
2021/10/05 14:32:41;;;;;;;1.45;1.33;;;;;;;;;;5012410;28;20205;-75
2021/10/05 14:35:09;;;;;;;1.92;1.23;;;;;;;;;;5010082;28;20283;-75
2021/10/05 14:37:36;;;;;;;1.77;1.40;;;;;;;;;;5019720;28;20196;-76
2021/10/05 14:40:05;;;;;;;1.55;0.90;;;;;;;;;;5012907;28;20205;-76
2021/10/05 14:42:32;;;;;;;1.17;1.00;;;;;;;;;;5006611;28;20275;-76
2021/10/05 14:44:59;;;;;;;1.20;1.10;;;;;;;;;;5011859;28;20706;-74
2021/10/05 14:47:27;;;;;;;1.00;0.90;;;;;;;;;;5018309;28;20662;-76
2021/10/05 14:49:55;;;;;;;2.00;0.90;;;;;;;;;;5023877;28;20367;-74